createdAt,value
2023-03-02T00:02:15.304Z,102146.25
2023-03-02T00:04:57.696Z,102144.34
2023-03-02T00:07:34.431Z,102142.56
2023-03-02T00:10:05.777Z,102145.16
2023-03-02T00:12:46.471Z,102141.69
2023-03-02T00:15:13.141Z,102138.19
2023-03-02T00:17:42.106Z,102130.41
2023-03-02T00:20:10.409Z,102137.69
2023-03-02T00:22:46.026Z,102132.50
2023-03-02T00:25:19.638Z,102130.69
2023-03-02T00:27:46.393Z,102131.56
2023-03-02T00:30:15.561Z,102139.44
2023-03-02T00:32:45.864Z,102135.03
2023-03-02T00:35:12.961Z,102128.91
2023-03-02T00:37:46.572Z,102122.06
2023-03-02T00:40:16.240Z,102118.72
2023-03-02T00:42:45.610Z,102104.75
2023-03-02T00:45:12.400Z,102114.41
2023-03-02T00:47:48.284Z,102103.78
2023-03-02T00:50:15.098Z,102113.41
2023-03-02T00:52:52.084Z,102098.47
2023-03-02T00:55:19.441Z,102110.81
2023-03-02T00:57:54.822Z,102108.25
2023-03-02T01:00:28.475Z,102106.47
2023-03-02T01:02:56.170Z,102104.75
2023-03-02T01:05:23.051Z,102113.66
2023-03-02T01:07:49.905Z,102103.94
2023-03-02T01:10:17.046Z,102109.13
2023-03-02T01:12:46.604Z,102102.13
2023-03-02T01:15:13.841Z,102103.13
2023-03-02T01:17:46.754Z,102105.00
2023-03-02T01:20:14.604Z,102094.72
2023-03-02T01:22:45.349Z,102101.00
2023-03-02T01:25:14.347Z,102101.00
2023-03-02T01:27:44.145Z,102091.44
2023-03-02T01:30:12.692Z,102107.34
2023-03-02T01:32:57.733Z,102090.53
2023-03-02T01:35:24.470Z,102079.88
2023-03-02T01:37:51.126Z,102088.63
2023-03-02T01:40:18.176Z,102083.28
2023-03-02T01:43:02.337Z,102083.22
2023-03-02T01:45:48.721Z,102088.47
2023-03-02T01:48:25.906Z,102076.97
2023-03-02T01:50:54.297Z,102076.06
2023-03-02T01:53:36.668Z,102069.97
2023-03-02T01:56:05.968Z,102063.72
2023-03-02T01:58:37.694Z,102071.66
2023-03-02T02:01:06.527Z,102067.28
2023-03-02T02:03:34.212Z,102062.97
2023-03-02T02:07:05.740Z,102075.34
2023-03-02T02:09:52.382Z,102076.44
2023-03-02T02:12:26.767Z,102076.63
2023-03-02T02:14:55.047Z,102073.97
2023-03-02T02:17:22.306Z,102067.72
2023-03-02T02:20:15.543Z,102059.81
2023-03-02T02:23:13.186Z,102059.72
2023-03-02T02:25:55.275Z,102058.78
2023-03-02T02:29:12.185Z,102059.66
2023-03-02T02:32:06.718Z,102053.38
2023-03-02T02:35:01.479Z,102047.13
2023-03-02T02:37:41.890Z,102035.94
2023-03-02T02:40:38.454Z,102042.16
2023-03-02T02:43:13.895Z,102043.13
2023-03-02T02:45:44.761Z,102028.06
2023-03-02T02:48:23.204Z,102040.34
2023-03-02T02:51:00.040Z,102036.84
2023-03-02T02:53:34.209Z,102037.66
2023-03-02T02:56:07.690Z,102031.50
2023-03-02T02:58:47.559Z,102028.81
2023-03-02T03:01:19.132Z,102025.38
2023-03-02T03:04:07.228Z,102035.78
2023-03-02T03:06:45.171Z,102032.22
2023-03-02T03:09:12.236Z,102026.06
2023-03-02T03:12:08.507Z,102025.19
2023-03-02T03:14:44.564Z,102026.00
2023-03-02T03:17:14.478Z,102015.38
2023-03-02T03:19:48.336Z,102021.56
2023-03-02T03:22:18.207Z,102025.97
2023-03-02T03:24:49.270Z,102021.50
2023-03-02T03:27:17.053Z,102021.50
2023-03-02T03:29:50.154Z,102024.03
2023-03-02T03:32:21.019Z,102031.09
2023-03-02T03:34:50.551Z,102020.66
2023-03-02T03:37:21.053Z,102022.38
2023-03-02T03:39:52.902Z,102024.16
2023-03-02T03:42:19.962Z,102020.56
2023-03-02T03:44:47.604Z,102027.56
2023-03-02T03:47:14.383Z,102024.03
2023-03-02T03:49:44.220Z,102028.53
2023-03-02T03:52:14.686Z,102022.50
2023-03-02T03:54:43.887Z,102019.94
2023-03-02T03:57:12.048Z,102020.88
2023-03-02T03:59:38.765Z,102025.16
2023-03-02T04:02:05.503Z,102021.59
2023-03-02T04:04:35.327Z,102029.53
2023-03-02T04:07:02.510Z,102020.69
2023-03-02T04:09:32.630Z,102022.38
2023-03-02T04:11:59.406Z,102018.81
2023-03-02T04:14:26.340Z,102015.19
2023-03-02T04:16:56.842Z,102019.50
2023-03-02T04:19:25.231Z,102017.66
2023-03-02T04:21:58.350Z,102015.81
2023-03-02T04:24:25.304Z,102014.84
2023-03-02T04:26:54.666Z,102015.56
2023-03-02T04:29:21.523Z,102002.28
2023-03-02T04:31:50.970Z,101999.53
2023-03-02T04:34:17.946Z,101998.66
2023-03-02T04:36:45.221Z,102005.75
2023-03-02T04:39:17.247Z,102012.75
2023-03-02T04:41:47.339Z,102014.44
2023-03-02T04:44:16.830Z,102003.81
2023-03-02T04:46:45.225Z,102017.03
2023-03-02T04:49:14.652Z,102010.91
2023-03-02T04:51:50.797Z,102011.78
2023-03-02T04:54:25.370Z,102011.66
2023-03-02T04:56:54.353Z,102013.47
2023-03-02T04:59:27.187Z,102013.38
2023-03-02T05:01:58.646Z,102016.94
2023-03-02T05:04:27.904Z,102021.25
2023-03-02T05:06:55.240Z,102006.31
2023-03-02T05:09:28.781Z,102015.00
2023-03-02T05:11:57.553Z,102007.97
2023-03-02T05:14:26.522Z,102006.22
2023-03-02T05:16:53.747Z,102009.81
2023-03-02T05:19:26.886Z,102012.56
2023-03-02T05:21:53.960Z,102001.09
2023-03-02T05:24:20.623Z,102001.00
2023-03-02T05:26:47.296Z,102002.75
2023-03-02T05:29:14.158Z,101997.53
2023-03-02T05:31:47.109Z,102006.31
2023-03-02T05:34:17.305Z,102007.16
2023-03-02T05:36:45.868Z,101999.13
2023-03-02T05:39:16.069Z,102008.03
2023-03-02T05:41:45.768Z,102001.78
2023-03-02T05:44:12.594Z,101998.34
2023-03-02T05:46:43.260Z,101990.53
2023-03-02T05:49:10.629Z,101991.28
2023-03-02T05:51:37.261Z,101994.78
2023-03-02T05:54:04.207Z,101979.03
2023-03-02T05:56:31.386Z,101989.56
2023-03-02T05:58:58.821Z,101988.63
2023-03-02T06:01:28.593Z,101984.16
2023-03-02T06:03:55.948Z,101977.13
2023-03-02T06:06:22.711Z,101984.13
2023-03-02T06:08:49.428Z,101986.66
2023-03-02T06:11:20.393Z,101975.97
2023-03-02T06:13:47.160Z,101976.03
2023-03-02T06:16:13.890Z,101976.91
2023-03-02T06:18:46.036Z,101979.63
2023-03-02T06:21:15.675Z,101979.66
2023-03-02T06:23:42.584Z,101986.78
2023-03-02T07:26:05.337Z,101979.13
2023-03-02T07:28:33.499Z,101988.53
2023-03-02T07:31:00.196Z,101990.06
2023-03-02T07:33:26.902Z,101974.06
2023-03-02T07:35:55.999Z,101978.03
2023-03-02T07:38:22.922Z,101986.63
2023-03-02T07:40:50.184Z,101981.25
2023-03-02T07:43:16.819Z,101979.25
2023-03-02T07:45:43.892Z,101986.31
2023-03-02T07:48:10.670Z,101983.38
2023-03-02T07:50:37.435Z,101984.19
2023-03-02T07:53:04.248Z,101987.66
2023-03-02T07:55:30.902Z,101983.34
2023-03-02T07:57:57.646Z,101991.31
2023-03-02T08:00:24.852Z,101992.72
2023-03-02T08:02:51.550Z,101988.81
2023-03-02T08:05:18.548Z,101993.19
2023-03-02T08:07:47.104Z,101986.94
2023-03-02T08:10:13.890Z,101986.94
2023-03-02T08:12:45.808Z,101986.84
2023-03-02T08:15:12.821Z,101994.72
2023-03-02T08:17:41.883Z,101993.94
2023-03-02T08:20:14.666Z,102000.13
2023-03-02T08:22:44.598Z,102001.78
2023-03-02T08:25:13.819Z,101993.69
2023-03-02T08:27:44.416Z,102003.84
2023-03-02T08:30:14.761Z,102000.91
2023-03-02T08:32:44.563Z,102005.97
2023-03-02T08:35:17.422Z,102006.88
2023-03-02T08:37:44.241Z,102014.63
2023-03-02T08:40:14.627Z,102016.28
2023-03-02T08:42:44.446Z,102010.69
2023-03-02T08:45:13.600Z,102005.69
2023-03-02T08:47:43.167Z,101996.38
2023-03-02T08:50:11.570Z,102000.34
2023-03-02T08:52:38.357Z,101983.03
2023-03-02T08:55:06.555Z,101996.56
2023-03-02T08:57:34.746Z,102001.81
2023-03-02T09:00:01.580Z,102000.22
2023-03-02T09:02:28.276Z,102002.66
2023-03-02T09:05:00.848Z,101998.56
2023-03-02T09:07:27.596Z,101991.50
2023-03-02T09:09:55.730Z,101990.03
2023-03-02T09:12:22.573Z,101995.38
2023-03-02T09:14:49.249Z,101992.38
2023-03-02T09:17:17.282Z,101990.56
2023-03-02T09:19:44.743Z,101988.31
2023-03-02T09:22:11.895Z,101983.25
2023-03-02T09:24:38.626Z,101978.63
2023-03-02T09:27:05.305Z,101985.56
2023-03-02T09:29:32.055Z,101990.66
2023-03-02T09:32:01.765Z,101980.97
2023-03-02T09:34:29.393Z,101978.06
2023-03-02T09:36:56.522Z,101985.31
2023-03-02T09:39:23.297Z,101979.66
2023-03-02T09:42:08.285Z,101980.94
2023-03-02T09:45:03.150Z,101986.44
2023-03-02T09:47:45.656Z,101984.56
2023-03-02T09:50:50.291Z,101982.19
2023-03-02T09:53:45.192Z,101982.88
2023-03-02T09:56:19.988Z,101982.88
2023-03-02T09:59:08.042Z,101983.91
2023-03-02T10:01:53.409Z,101991.06
2023-03-02T10:04:53.329Z,101991.94
2023-03-02T10:07:32.546Z,101990.59
2023-03-02T10:10:39.023Z,101990.75
2023-03-02T10:14:02.898Z,101986.75
2023-03-02T10:16:49.746Z,101997.09
2023-03-02T10:19:41.803Z,101984.25
2023-03-02T10:22:41.600Z,101984.31
2023-03-02T10:25:52.924Z,101979.66
2023-03-02T10:28:26.346Z,101983.88
2023-03-02T10:31:30.626Z,101983.91
2023-03-02T10:34:01.446Z,101984.84
2023-03-02T10:36:38.363Z,101986.34
2023-03-02T10:39:15.345Z,101979.75
2023-03-02T10:42:03.959Z,101976.47
2023-03-02T10:44:42.189Z,101985.34
2023-03-02T10:47:38.018Z,101987.59
2023-03-02T10:50:21.132Z,101989.19
2023-03-02T10:52:59.964Z,101986.75
2023-03-02T10:55:28.941Z,101988.78
2023-03-02T10:58:25.745Z,101982.19
2023-03-02T11:01:16.948Z,101974.84
2023-03-02T11:04:03.912Z,101977.47
2023-03-02T11:06:31.035Z,101982.25
2023-03-02T11:09:02.097Z,101979.09
2023-03-02T11:11:30.209Z,101971.38
2023-03-02T11:14:17.291Z,101973.53
2023-03-02T11:16:44.104Z,101962.56
2023-03-02T11:19:33.174Z,101964.38
2023-03-02T11:22:25.009Z,101964.31
2023-03-02T11:24:58.362Z,101961.78
2023-03-02T11:27:35.353Z,101959.16
2023-03-02T11:30:18.985Z,101961.75
2023-03-02T11:33:27.695Z,101948.53
2023-03-02T11:36:20.700Z,101955.69
2023-03-02T11:38:55.058Z,101948.84
2023-03-02T11:41:32.754Z,101950.84
2023-03-02T11:44:19.489Z,101955.69
2023-03-02T11:46:57.899Z,101961.75
2023-03-02T11:49:57.207Z,101958.91
2023-03-02T11:52:32.167Z,101943.66
2023-03-02T11:55:19.992Z,101946.59
2023-03-02T11:58:04.610Z,101938.41
2023-03-02T12:00:37.328Z,101945.41
2023-03-02T12:03:14.749Z,101941.75
2023-03-02T12:06:05.208Z,101943.75
2023-03-02T12:08:48.006Z,101940.03
2023-03-02T12:11:17.876Z,101936.06
2023-03-02T12:14:43.868Z,101929.66
2023-03-02T12:17:37.001Z,101923.84
2023-03-02T12:20:29.917Z,101918.09
2023-03-02T12:23:24.100Z,101914.66
2023-03-02T12:26:21.115Z,101905.00
2023-03-02T12:29:23.862Z,101904.66
2023-03-02T12:31:57.090Z,101896.94
2023-03-02T12:34:35.106Z,101897.28
2023-03-02T12:37:22.800Z,101899.91
2023-03-02T12:40:38.360Z,101899.25
2023-03-02T12:43:35.927Z,101902.09
2023-03-02T12:50:22.117Z,101883.13
2023-03-02T12:53:06.371Z,101883.81
2023-03-02T12:55:34.615Z,101887.09
2023-03-02T12:58:03.372Z,101878.97
2023-03-02T13:00:35.352Z,101875.50
2023-03-02T13:03:09.746Z,101868.25
2023-03-02T13:05:37.408Z,101872.03
2023-03-02T13:08:32.108Z,101861.00
2023-03-02T13:11:05.447Z,101868.06
2023-03-02T13:13:52.325Z,101855.16
2023-03-02T13:16:36.502Z,101855.78
2023-03-02T13:22:00.889Z,101854.38
2023-03-02T13:24:45.618Z,101857.66
2023-03-02T13:27:25.553Z,101855.59
2023-03-02T13:29:55.672Z,101847.28
2023-03-02T13:32:46.718Z,101855.09
2023-03-02T13:35:30.030Z,101846.09
2023-03-02T13:38:23.132Z,101833.75
2023-03-02T13:40:55.221Z,101841.09
2023-03-02T13:43:31.028Z,101840.09
2023-03-02T13:46:11.246Z,101838.22
2023-03-02T13:48:44.694Z,101834.53
2023-03-02T13:51:24.035Z,101838.53
2023-03-02T13:53:59.034Z,101834.41
2023-03-02T13:56:38.794Z,101830.94
2023-03-02T13:59:20.430Z,101826.16
2023-03-02T14:01:47.743Z,101829.94
2023-03-02T14:04:23.249Z,101821.09
2023-03-02T14:06:55.961Z,101827.06
2023-03-02T14:09:22.860Z,101817.00
2023-03-02T14:11:55.866Z,101825.84
2023-03-02T14:14:29.080Z,101813.72
2023-03-02T14:16:56.806Z,101810.66
2023-03-02T14:19:23.409Z,101812.53
2023-03-02T14:21:50.155Z,101806.16
2023-03-02T14:24:17.022Z,101805.66
2023-03-02T14:26:48.835Z,101799.44
2023-03-02T14:29:36.834Z,101800.53
2023-03-02T14:32:09.653Z,101797.31
2023-03-02T14:34:43.542Z,101798.25
2023-03-02T14:37:27.639Z,101786.66
2023-03-02T14:39:55.724Z,101779.56
2023-03-02T14:42:23.613Z,101786.31
2023-03-02T14:44:52.167Z,101777.97
2023-03-02T14:47:19.581Z,101769.09
2023-03-02T14:49:49.289Z,101770.31
2023-03-02T14:52:43.146Z,101769.75
2023-03-02T14:55:25.935Z,101775.16
2023-03-02T14:58:17.611Z,101779.16
2023-03-02T15:00:45.296Z,101765.53
2023-03-02T15:03:25.578Z,101765.94
2023-03-02T15:06:01.391Z,101763.97
2023-03-02T15:08:30.156Z,101759.25
2023-03-02T15:11:01.515Z,101753.44
2023-03-02T15:13:28.285Z,101756.91
2023-03-02T15:15:55.055Z,101764.38
2023-03-02T15:18:21.740Z,101768.66
2023-03-02T15:20:48.536Z,101755.56
2023-03-02T15:23:15.285Z,101767.09
2023-03-02T15:26:00.741Z,101757.97
2023-03-02T15:28:27.455Z,101756.13
2023-03-02T15:31:14.987Z,101752.94
2023-03-02T15:33:51.222Z,101744.66
2023-03-02T15:36:27.006Z,101745.47
2023-03-02T15:38:53.673Z,101748.97
2023-03-02T15:41:21.183Z,101752.91
2023-03-02T15:43:55.112Z,101748.78
2023-03-02T15:46:23.677Z,101745.13
2023-03-02T15:48:53.765Z,101743.88
2023-03-02T15:51:23.941Z,101744.19
2023-03-02T15:53:53.621Z,101749.63
2023-03-02T15:56:20.438Z,101747.38
2023-03-02T15:58:51.442Z,101742.88
2023-03-02T16:01:18.273Z,101745.25
2023-03-02T16:03:45.703Z,101746.66
2023-03-02T16:06:13.388Z,101738.84
2023-03-02T16:08:49.747Z,101745.94
2023-03-02T16:11:21.311Z,101748.25
2023-03-02T16:13:48.205Z,101746.94
2023-03-02T16:16:31.142Z,101728.88
2023-03-02T16:19:04.388Z,101730.81
2023-03-02T16:21:33.243Z,101724.59
2023-03-02T16:24:03.920Z,101722.16
2023-03-02T16:26:42.791Z,101730.19
2023-03-02T16:29:13.195Z,101718.19
2023-03-02T16:31:47.144Z,101707.63
2023-03-02T16:34:16.571Z,101713.50
2023-03-02T16:36:46.281Z,101713.28
2023-03-02T16:39:14.426Z,101724.19
2023-03-02T16:41:48.725Z,101715.84
2023-03-02T16:44:16.092Z,101717.03
2023-03-02T16:46:46.501Z,101715.84
2023-03-02T16:49:16.520Z,101704.63
2023-03-02T16:51:57.984Z,101707.22
2023-03-02T16:54:30.325Z,101712.19
2023-03-02T16:56:59.744Z,101709.53
2023-03-02T16:59:26.617Z,101713.22
2023-03-02T17:01:56.206Z,101716.59
2023-03-02T17:04:23.002Z,101720.66
2023-03-02T17:07:03.884Z,101716.28
2023-03-02T17:09:35.277Z,101729.31
2023-03-02T17:12:02.258Z,101729.06
2023-03-02T17:14:29.298Z,101720.72
2023-03-02T17:17:07.160Z,101724.81
2023-03-02T17:19:36.950Z,101734.06
2023-03-02T17:22:11.322Z,101741.41
2023-03-02T17:24:38.265Z,101738.41
2023-03-02T17:27:19.058Z,101742.09
2023-03-02T17:29:52.356Z,101742.75
2023-03-02T17:32:22.724Z,101741.25
2023-03-02T17:34:50.537Z,101732.31
2023-03-02T17:37:17.721Z,101743.09
2023-03-02T17:39:53.542Z,101743.56
2023-03-02T17:42:20.478Z,101742.22
2023-03-02T17:44:50.179Z,101746.81
2023-03-02T17:47:17.233Z,101747.66
2023-03-02T17:49:45.210Z,101748.38
2023-03-02T17:52:20.953Z,101745.63
2023-03-02T17:54:53.705Z,101734.94
2023-03-02T17:57:23.043Z,101741.66
2023-03-02T17:59:50.481Z,101735.91
2023-03-02T18:02:19.171Z,101733.63
2023-03-02T18:04:48.588Z,101741.63
2023-03-02T18:07:16.659Z,101728.41
2023-03-02T18:09:55.258Z,101733.03
2023-03-02T18:12:22.187Z,101747.72
2023-03-02T18:14:50.184Z,101737.03
2023-03-02T18:17:24.588Z,101734.25
2023-03-02T18:19:51.434Z,101729.63
2023-03-02T18:22:18.121Z,101737.34
2023-03-02T18:24:45.178Z,101728.50
2023-03-02T18:27:13.933Z,101731.94
2023-03-02T18:29:46.330Z,101723.81
2023-03-02T18:32:16.365Z,101730.59
2023-03-02T18:34:43.192Z,101735.09
2023-03-02T18:37:09.976Z,101738.75
2023-03-02T18:39:46.793Z,101731.44
2023-03-02T18:42:16.566Z,101736.25
2023-03-02T18:44:43.325Z,101727.97
2023-03-02T18:47:21.618Z,101729.72
2023-03-02T18:49:52.066Z,101736.69
2023-03-02T18:52:20.230Z,101738.66
